Time;durP1;ratioP1;P1;durP2;ratioP2;P2;SDS_P1;SDS_P2;PMS_P1;PMS_P2;Temp;Humidity;BMP_temperature;BMP_pressure;BME280_temperature;BME280_humidity;BME280_pressure;Samples;Min_cycle;Max_cycle;Signal;HPM_P1;HPM_P2
2022/11/01 00:01:33;;;;;;;11.02;2.10;;;;;;;24.58;44.58;100697.56;4943712;28;20057;-66
2022/11/01 00:03:58;;;;;;;4.93;1.83;;;;;;;24.57;44.24;100704.06;4975682;28;20035;-65
2022/11/01 00:06:24;;;;;;;6.45;1.90;;;;;;;24.56;44.96;100694.22;4975572;28;20055;-65
2022/11/01 00:08:49;;;;;;;9.88;2.00;;;;;;;24.57;44.44;100684.91;4975200;28;20110;-66
2022/11/01 00:11:16;;;;;;;7.78;2.15;;;;;;;24.58;44.70;100688.50;4943385;28;20131;-66
2022/11/01 00:13:43;;;;;;;7.97;1.83;;;;;;;24.58;44.51;100680.28;4977127;28;20050;-66
2022/11/01 00:16:09;;;;;;;9.05;2.90;;;;;;;24.55;44.65;100678.81;4959368;28;20095;-65
2022/11/01 00:18:34;;;;;;;2.65;1.85;;;;;;;24.56;44.78;100680.50;4975461;28;20162;-66
2022/11/01 00:21:00;;;;;;;9.43;1.80;;;;;;;24.55;44.87;100678.81;4975273;28;20035;-65
2022/11/01 00:23:25;;;;;;;8.40;2.15;;;;;;;24.57;44.81;100697.75;4942996;28;20062;-66
2022/11/01 00:25:50;;;;;;;4.25;2.15;;;;;;;24.53;45.33;100691.91;4975564;28;20074;-67
2022/11/01 00:28:16;;;;;;;7.20;2.40;;;;;;;24.43;44.92;100674.31;4975246;28;20413;-66
2022/11/01 00:30:41;;;;;;;9.02;1.88;;;;;;;24.39;45.33;100684.00;4942949;28;20062;-66
2022/11/01 00:33:07;;;;;;;3.72;1.60;;;;;;;24.31;45.96;100676.91;4958920;28;20026;-66
2022/11/01 00:35:33;;;;;;;5.75;1.73;;;;;;;24.20;45.92;100674.91;4958831;28;20047;-66
2022/11/01 00:37:59;;;;;;;7.53;2.72;;;;;;;24.14;46.52;100675.78;4943345;28;20031;-66
2022/11/01 00:40:25;;;;;;;6.55;1.92;;;;;;;24.11;45.70;100681.69;4976126;28;20035;-66
2022/11/01 00:42:50;;;;;;;5.85;1.38;;;;;;;24.11;45.85;100682.53;4975228;28;20035;-66
2022/11/01 00:45:16;;;;;;;11.98;2.05;;;;;;;24.10;45.82;100678.13;4976077;28;20551;-66
2022/11/01 00:47:41;;;;;;;5.35;1.58;;;;;;;24.13;46.30;100671.34;4958786;28;20026;-66
2022/11/01 00:50:07;;;;;;;6.55;2.33;;;;;;;24.13;46.19;100676.84;4958972;28;20034;-66
2022/11/01 00:52:32;;;;;;;3.72;2.00;;;;;;;24.13;46.09;100671.34;4958835;28;20081;-66
2022/11/01 00:54:58;;;;;;;7.03;2.83;;;;;;;24.11;46.37;100677.06;4942751;28;20039;-64
2022/11/01 00:57:23;;;;;;;6.28;1.88;;;;;;;24.11;46.09;100678.97;4942591;28;20069;-66
2022/11/01 00:59:49;;;;;;;4.13;1.75;;;;;;;24.08;46.27;100673.88;4974681;28;20118;-64
2022/11/01 01:02:14;;;;;;;4.72;1.90;;;;;;;24.12;46.47;100677.91;4975678;28;20070;-64
2022/11/01 01:04:42;;;;;;;4.28;1.92;;;;;;;24.08;46.98;100682.94;4974812;28;20081;-65
2022/11/01 01:07:08;;;;;;;3.75;2.05;;;;;;;24.10;47.15;100680.00;4974454;28;20035;-64
2022/11/01 01:09:33;;;;;;;2.88;1.42;;;;;;;24.11;46.69;100682.53;4975820;28;20042;-64
2022/11/01 01:11:59;;;;;;;5.20;1.92;;;;;;;24.11;46.61;100687.16;4974555;28;20038;-65
2022/11/01 01:14:24;;;;;;;2.17;1.40;;;;;;;24.11;46.29;100676.22;4958099;28;20035;-65
2022/11/01 01:16:50;;;;;;;10.88;2.80;;;;;;;24.10;46.49;100674.53;4974618;28;20029;-64
2022/11/01 01:19:15;;;;;;;5.95;1.73;;;;;;;24.14;46.69;100684.00;4974365;28;20062;-65
2022/11/01 01:21:41;;;;;;;5.57;1.38;;;;;;;24.15;46.06;100671.97;4975351;28;20524;-64
2022/11/01 01:24:06;;;;;;;5.90;1.73;;;;;;;24.14;46.80;100681.25;4957848;28;20069;-64
2022/11/01 01:26:31;;;;;;;4.60;1.40;;;;;;;24.13;46.82;100676.84;4975479;28;20477;-64
2022/11/01 01:28:57;;;;;;;5.53;1.55;;;;;;;24.13;46.89;100679.56;4974511;28;20059;-64
2022/11/01 01:31:22;;;;;;;5.43;1.83;;;;;;;24.13;46.88;100682.31;4974051;28;20097;-64
2022/11/01 01:33:47;;;;;;;3.50;1.55;;;;;;;24.10;46.87;100671.78;4957885;28;20042;-64
2022/11/01 01:36:13;;;;;;;3.65;1.52;;;;;;;24.15;46.50;100677.44;4974128;28;20077;-64
2022/11/01 01:38:41;;;;;;;5.28;2.20;;;;;;;24.13;46.82;100676.84;4958044;28;20115;-64
2022/11/01 01:43:51;;;;;;;7.25;1.88;;;;;;;24.12;47.07;100669.69;4974219;28;20041;-64
2022/11/01 01:46:16;;;;;;;3.97;1.38;;;;;;;24.09;47.00;100672.84;4974983;28;20034;-64
2022/11/01 01:48:44;;;;;;;6.25;2.03;;;;;;;24.11;47.40;100679.81;4974911;28;20106;-64
2022/11/01 01:51:18;;;;;;;2.63;1.60;;;;;;;24.11;47.64;100668.84;4973780;28;20428;-64
2022/11/01 01:53:45;;;;;;;10.20;2.03;;;;;;;24.13;46.69;100674.09;4974827;28;20069;-65
2022/11/01 01:56:11;;;;;;;5.38;2.78;;;;;;;24.13;47.18;100674.09;4974027;28;20030;-64
2022/11/01 01:58:42;;;;;;;4.45;1.95;;;;;;;24.11;47.00;100655.16;4973724;28;20174;-64
2022/11/01 02:01:07;;;;;;;5.90;1.98;;;;;;;24.08;46.45;100679.38;4957348;28;20066;-64
2022/11/01 02:03:34;;;;;;;4.22;1.55;;;;;;;24.07;47.29;100669.47;4973510;28;20031;-64
2022/11/01 02:06:09;;;;;;;6.75;1.85;;;;;;;24.09;46.96;100672.84;4973302;28;20571;-65
2022/11/01 02:08:36;;;;;;;8.10;1.70;;;;;;;24.07;47.30;100667.56;4957400;28;20054;-65
2022/11/01 02:11:05;;;;;;;7.82;1.67;;;;;;;24.08;46.47;100682.09;4973761;28;20596;-65
2022/11/01 02:13:30;;;;;;;8.30;2.00;;;;;;;24.08;47.36;100669.25;4973394;28;20452;-64
2022/11/01 02:16:27;;;;;;;1.83;1.73;;;;;;;24.11;47.04;100666.13;4956816;28;20030;-64
2022/11/01 02:19:10;;;;;;;7.95;1.98;;;;;;;24.11;46.93;100659.78;4957164;28;20057;-65
2022/11/01 02:21:36;;;;;;;4.72;1.70;;;;;;;24.12;47.34;100667.78;4973263;28;20042;-65
2022/11/01 02:24:10;;;;;;;6.38;2.20;;;;;;;24.15;46.60;100672.81;4974453;28;20043;-64
2022/11/01 02:26:57;;;;;;;9.65;1.85;;;;;;;24.16;47.30;100674.50;4974296;28;20087;-64
2022/11/01 02:29:22;;;;;;;2.10;1.33;;;;;;;24.16;47.45;100679.13;4974282;28;20109;-64
2022/11/01 02:32:09;;;;;;;6.38;1.88;;;;;;;24.16;47.49;100674.50;4974739;28;20495;-64
2022/11/01 02:34:57;;;;;;;7.05;1.73;;;;;;;24.15;47.07;100683.75;4973129;28;20038;-64
2022/11/01 02:37:32;;;;;;;3.70;1.65;;;;;;;24.12;47.41;100683.38;4973008;28;20496;-65
2022/11/01 02:40:12;;;;;;;3.38;1.30;;;;;;;24.11;46.98;100681.69;4956994;28;20030;-65
2022/11/01 02:42:42;;;;;;;4.07;1.48;;;;;;;24.10;47.34;100674.53;4972981;28;20489;-65
2022/11/01 02:45:26;;;;;;;5.43;1.60;;;;;;;24.12;47.65;100686.13;4973001;28;20074;-65
2022/11/01 02:47:52;;;;;;;4.03;1.60;;;;;;;24.14;47.42;100697.69;4958538;28;20042;-65
2022/11/01 02:50:18;;;;;;;5.90;1.73;;;;;;;24.14;46.75;100697.69;4972840;28;20027;-65
2022/11/01 02:52:44;;;;;;;3.70;1.50;;;;;;;24.12;46.99;100683.38;4973323;28;20511;-65
2022/11/01 02:55:28;;;;;;;7.80;1.88;;;;;;;24.15;47.58;100688.38;4974392;28;20113;-65
2022/11/01 02:57:54;;;;;;;6.50;1.88;;;;;;;24.14;47.54;100692.22;4958209;28;20130;-65
2022/11/01 03:00:21;;;;;;;3.65;1.27;;;;;;;24.13;47.09;100698.72;4972583;28;20523;-65
2022/11/01 03:02:48;;;;;;;2.92;1.30;;;;;;;24.10;47.36;100699.16;4956568;28;20085;-65
2022/11/01 03:05:16;;;;;;;3.72;1.38;;;;;;;24.12;47.26;100692.41;4972659;28;20417;-65
2022/11/01 03:07:47;;;;;;;1.98;1.40;;;;;;;24.09;46.85;100681.91;4973247;28;20023;-65
2022/11/01 03:10:12;;;;;;;4.15;1.40;;;;;;;24.08;46.76;100688.41;4974034;28;20117;-65
2022/11/01 03:12:50;;;;;;;5.57;1.42;;;;;;;24.12;46.88;100691.59;4972975;28;20123;-65
2022/11/01 03:15:25;;;;;;;3.70;1.42;;;;;;;24.12;47.33;100686.13;4956621;28;20035;-65
2022/11/01 03:18:12;;;;;;;4.90;1.58;;;;;;;24.14;46.69;100692.22;4956565;28;20488;-65
2022/11/01 03:20:53;;;;;;;3.65;1.15;;;;;;;24.13;47.00;100702.31;4972505;28;20030;-64
2022/11/01 03:23:31;;;;;;;6.20;1.45;;;;;;;24.12;46.58;100703.34;4956712;28;20113;-64
2022/11/01 03:25:59;;;;;;;2.83;0.95;;;;;;;24.12;46.57;100702.53;4972830;28;20018;-65
2022/11/01 03:28:35;;;;;;;3.75;1.20;;;;;;;24.13;46.82;100701.47;4975632;28;20635;-65
2022/11/01 03:31:05;;;;;;;6.30;1.88;;;;;;;24.13;46.64;100712.41;4976162;28;20508;-65
2022/11/01 03:33:32;;;;;;;4.68;1.65;;;;;;;24.11;47.42;100706.34;4976191;28;20027;-65
2022/11/01 03:36:02;;;;;;;8.30;2.58;;;;;;;24.12;47.07;100716.22;4976378;28;20377;-65
2022/11/01 03:38:30;;;;;;;9.93;1.30;;;;;;;24.11;46.93;100723.59;4975992;28;20073;-64
2022/11/01 03:41:00;;;;;;;10.10;1.88;;;;;;;24.10;46.54;100727.38;4976449;28;20084;-64
2022/11/01 03:43:26;;;;;;;7.35;1.95;;;;;;;24.12;46.55;100732.66;4976157;28;20059;-65
2022/11/01 03:45:52;;;;;;;4.80;2.13;;;;;;;24.11;46.31;100728.22;4975825;28;20070;-65
2022/11/01 03:48:17;;;;;;;5.63;1.55;;;;;;;24.09;46.85;100738.53;4976012;28;20081;-64
2022/11/01 03:50:51;;;;;;;2.50;0.70;;;;;;;24.08;46.48;100737.69;4975867;28;20035;-65
2022/11/01 03:53:16;;;;;;;3.83;1.42;;;;;;;24.05;46.58;100746.34;4959769;28;20022;-65
2022/11/01 03:55:42;;;;;;;3.30;1.25;;;;;;;24.07;45.98;100757.06;4976304;28;20077;-65
2022/11/01 03:58:08;;;;;;;4.00;1.02;;;;;;;24.05;45.77;100753.69;4976021;28;20066;-65
2022/11/01 04:00:39;;;;;;;1.23;0.65;;;;;;;24.03;46.11;100751.19;4975986;28;20121;-65
2022/11/01 04:03:04;;;;;;;2.33;1.02;;;;;;;24.01;46.52;100769.72;4975810;28;20520;-65
2022/11/01 04:05:31;;;;;;;3.85;1.00;;;;;;;24.00;45.65;100772.69;4975570;28;20027;-65
2022/11/01 04:07:57;;;;;;;2.97;0.82;;;;;;;23.98;45.59;100774.81;4959826;28;20484;-64
2022/11/01 04:10:23;;;;;;;3.15;1.00;;;;;;;23.99;45.78;100790.16;4959530;28;20090;-65
2022/11/01 04:12:49;;;;;;;1.88;0.90;;;;;;;23.95;45.59;100777.97;4959378;28;20126;-65
2022/11/01 04:21:04;;;;;;;;;;;;;;;23.86;46.24;100792.97;4976093;28;20115;-64
2022/11/01 04:23:30;;;;;;;2.53;0.85;;;;;;;23.82;45.17;100802.63;4976645;28;19910;-64
2022/11/01 04:25:55;;;;;;;3.22;0.98;;;;;;;23.77;45.90;100817.81;4959603;28;20031;-64
2022/11/01 04:28:21;;;;;;;2.90;0.63;;;;;;;23.76;45.12;100821.59;4975218;28;20031;-65
2022/11/01 04:30:46;;;;;;;0.82;0.60;;;;;;;23.76;45.33;100838.03;4975023;28;20501;-64
2022/11/01 04:33:11;;;;;;;2.33;0.82;;;;;;;23.77;45.76;100828.75;4976499;28;20085;-64
2022/11/01 04:35:37;;;;;;;0.93;0.65;;;;;;;23.77;45.31;100847.06;4974948;28;20393;-64
2022/11/01 04:38:03;;;;;;;3.08;1.33;;;;;;;23.70;44.67;100849.81;4975010;28;20042;-64
2022/11/01 04:40:29;;;;;;;3.40;0.80;;;;;;;23.65;45.30;100857.81;4975058;28;20035;-65
2022/11/01 04:42:54;;;;;;;1.33;0.60;;;;;;;23.62;45.55;100863.72;4975109;28;20082;-64
2022/11/01 04:45:20;;;;;;;0.98;0.88;;;;;;;23.57;45.32;100871.72;4974971;28;20041;-65
2022/11/01 04:47:51;;;;;;;3.42;0.98;;;;;;;23.52;44.99;100874.28;4958751;28;20567;-64
2022/11/01 04:50:20;;;;;;;2.58;1.08;;;;;;;23.51;44.66;100883.50;4959466;28;20027;-64
2022/11/01 04:52:46;;;;;;;1.95;1.13;;;;;;;23.48;45.18;100894.88;4959068;28;20038;-65
2022/11/01 04:55:11;;;;;;;3.03;0.40;;;;;;;23.44;44.88;100887.31;4974804;28;20428;-65
2022/11/01 04:57:41;;;;;;;1.98;0.85;;;;;;;23.40;44.71;100900.56;4958563;28;20041;-65
2022/11/01 05:00:10;;;;;;;3.05;0.40;;;;;;;23.33;44.67;100907.91;4974513;28;20034;-64
2022/11/01 05:02:36;;;;;;;3.05;0.55;;;;;;;23.28;44.08;100904.97;4958813;28;20489;-65
2022/11/01 05:05:01;;;;;;;2.53;1.23;;;;;;;23.19;44.19;100909.81;4974891;28;20045;-64
2022/11/01 05:07:27;;;;;;;3.75;0.45;;;;;;;23.17;44.11;100927.47;4958516;28;20035;-64
2022/11/01 05:09:52;;;;;;;1.35;0.40;;;;;;;23.12;44.24;100946.34;4974641;28;20038;-65
2022/11/01 05:12:18;;;;;;;3.55;0.65;;;;;;;23.07;44.27;100935.22;4958414;28;20562;-64
2022/11/01 05:14:43;;;;;;;2.55;0.50;;;;;;;23.03;43.86;100953.09;4974481;28;20051;-64
2022/11/01 05:17:08;;;;;;;3.55;0.50;;;;;;;22.97;43.61;100954.75;4974789;28;20035;-65
2022/11/01 05:19:34;;;;;;;1.58;0.57;;;;;;;22.91;43.95;100957.47;4958185;28;20027;-65
2022/11/01 05:21:59;;;;;;;1.70;0.30;;;;;;;22.89;44.29;100970.50;4974126;28;20150;-64
2022/11/01 05:24:24;;;;;;;1.35;0.30;;;;;;;22.78;43.25;100963.72;4975426;28;20043;-64
2022/11/01 05:26:50;;;;;;;2.20;0.40;;;;;;;22.78;43.21;100977.38;4973831;28;20091;-64
2022/11/01 05:29:15;;;;;;;0.95;0.40;;;;;;;22.74;43.70;100988.94;4974089;28;20037;-65
2022/11/01 05:31:41;;;;;;;1.42;0.38;;;;;;;22.70;43.00;101004.88;4958029;28;20050;-65
2022/11/01 05:34:06;;;;;;;1.50;0.30;;;;;;;22.65;43.76;101010.09;4957938;28;20035;-64
2022/11/01 05:36:31;;;;;;;0.85;0.30;;;;;;;22.59;42.82;101009.00;4975225;28;20061;-64
2022/11/01 05:38:57;;;;;;;1.63;0.35;;;;;;;22.54;43.70;101014.22;4957793;28;20031;-65
2022/11/01 05:41:23;;;;;;;2.60;0.30;;;;;;;22.51;42.64;101016.50;4973900;28;20518;-65
2022/11/01 05:43:48;;;;;;;3.33;0.47;;;;;;;22.45;42.53;101015.44;4974274;28;20489;-64
2022/11/01 05:46:14;;;;;;;1.52;0.20;;;;;;;22.42;42.58;101024.03;4975012;28;20066;-65
2022/11/01 05:48:40;;;;;;;3.63;0.32;;;;;;;22.39;43.19;101021.69;4973813;28;20500;-64
2022/11/01 05:51:05;;;;;;;1.83;0.43;;;;;;;22.36;43.48;101043.94;4973000;28;20070;-64
2022/11/01 05:53:31;;;;;;;2.80;0.38;;;;;;;22.34;42.40;101039.72;4957626;28;20441;-64
2022/11/01 05:55:56;;;;;;;2.08;0.63;;;;;;;22.31;43.32;101032.78;4957885;28;20436;-64
2022/11/01 05:58:21;;;;;;;4.70;0.40;;;;;;;22.29;42.25;101036.75;4973651;28;20038;-64
2022/11/01 06:00:47;;;;;;;3.15;0.55;;;;;;;22.24;42.82;101034.63;4973288;28;20058;-64
2022/11/01 06:03:12;;;;;;;5.68;0.30;;;;;;;22.17;42.79;101035.63;4957365;28;20030;-65
2022/11/01 06:05:38;;;;;;;0.75;0.40;;;;;;;22.12;42.69;101035.38;4973422;28;20097;-64
2022/11/01 06:08:04;;;;;;;4.93;0.60;;;;;;;22.06;42.37;101045.19;4957787;28;20027;-64
2022/11/01 06:10:30;;;;;;;0.65;0.32;;;;;;;22.00;43.00;101056.91;4973447;28;20062;-64
2022/11/01 06:12:56;;;;;;;2.53;0.32;;;;;;;21.95;43.46;101075.75;4957368;28;20429;-64
2022/11/01 06:15:21;;;;;;;4.20;0.50;;;;;;;21.89;42.96;101076.53;4957115;28;20033;-64
2022/11/01 06:17:47;;;;;;;2.53;0.77;;;;;;;21.82;42.83;101081.91;4974731;28;20035;-64
2022/11/01 06:20:12;;;;;;;1.00;0.20;;;;;;;21.80;42.47;101083.16;4972941;28;20409;-64
2022/11/01 06:22:38;;;;;;;0.10;0.10;;;;;;;21.74;42.57;101084.78;4989785;28;20026;-65
2022/11/01 06:25:04;;;;;;;3.92;0.35;;;;;;;21.70;42.84;101099.84;4973193;28;20097;-64
2022/11/01 06:27:30;;;;;;;0.95;0.35;;;;;;;21.65;42.75;101099.59;4972975;28;20059;-65
2022/11/01 06:29:55;;;;;;;1.75;0.43;;;;;;;21.60;42.43;101109.38;4956821;28;20058;-65
2022/11/01 06:32:21;;;;;;;2.38;0.30;;;;;;;21.58;42.96;101116.94;4989049;28;20050;-65
2022/11/01 06:34:46;;;;;;;1.90;0.40;;;;;;;21.58;42.58;101131.38;4957263;28;20069;-65
2022/11/01 06:37:11;;;;;;;1.27;0.35;;;;;;;21.53;42.22;101124.81;4989055;28;20033;-64
2022/11/01 06:39:37;;;;;;;3.00;0.75;;;;;;;21.50;42.84;101128.78;4972816;28;20035;-65
2022/11/01 06:42:02;;;;;;;0.60;0.30;;;;;;;21.52;42.78;101136.78;4972667;28;20047;-65
2022/11/01 06:44:28;;;;;;;1.52;0.45;;;;;;;21.52;43.05;101144.97;4988918;28;20102;-65
2022/11/01 06:46:53;;;;;;;1.77;0.35;;;;;;;21.52;41.95;101144.97;4972773;28;20038;-65
2022/11/01 06:49:19;;;;;;;3.08;0.30;;;;;;;21.50;42.58;101147.03;4988676;28;20069;-65
2022/11/01 06:51:45;;;;;;;0.30;0.20;;;;;;;21.46;42.09;101147.41;4972864;28;20149;-65
2022/11/01 06:54:10;;;;;;;1.48;0.28;;;;;;;21.45;42.24;101153.91;4956633;28;20027;-65
2022/11/01 06:56:36;;;;;;;3.03;0.40;;;;;;;21.44;42.72;101157.66;4973919;28;20031;-65
2022/11/01 06:59:01;;;;;;;1.13;0.38;;;;;;;21.40;41.75;101159.09;4973084;28;20192;-65
2022/11/01 07:01:28;;;;;;;4.72;0.80;;;;;;;21.41;41.88;101176.28;4990502;28;20496;-65
2022/11/01 07:03:53;;;;;;;2.17;0.20;;;;;;;21.35;42.83;101169.72;4960696;28;20578;-65
2022/11/01 07:06:19;;;;;;;1.90;0.38;;;;;;;21.28;41.64;101173.38;4992758;28;20051;-65
2022/11/01 07:08:44;;;;;;;5.00;0.60;;;;;;;21.21;41.90;101180.63;4992890;28;20058;-65
2022/11/01 07:11:10;;;;;;;4.55;0.75;;;;;;;21.18;41.93;101187.31;4977033;28;20035;-65
2022/11/01 07:13:37;;;;;;;3.08;0.77;;;;;;;21.22;42.07;101194.06;4976456;28;20508;-66
2022/11/01 07:16:04;;;;;;;3.60;0.45;;;;;;;21.29;41.12;101205.91;4977679;28;20500;-63
2022/11/01 07:18:30;;;;;;;2.92;0.77;;;;;;;21.31;41.35;101201.09;4976299;28;20035;-64
2022/11/01 07:20:56;;;;;;;3.65;0.60;;;;;;;21.39;41.84;101217.34;4960204;28;20062;-64
2022/11/01 07:23:21;;;;;;;1.63;0.32;;;;;;;21.42;41.03;101222.44;4976299;28;20113;-64
2022/11/01 07:25:51;;;;;;;1.90;0.35;;;;;;;21.39;40.39;101225.53;4960424;28;20396;-64
2022/11/01 07:28:16;;;;;;;2.47;0.60;;;;;;;21.46;40.71;101229.19;4976244;28;20162;-64
2022/11/01 07:30:42;;;;;;;1.30;0.88;;;;;;;21.49;40.40;101222.53;4975853;28;20519;-64
2022/11/01 07:33:07;;;;;;;3.25;0.63;;;;;;;21.56;40.52;101233.50;4976069;28;20054;-64
2022/11/01 07:35:33;;;;;;;3.75;0.52;;;;;;;21.63;41.10;101228.97;4992360;28;20054;-64
2022/11/01 07:37:59;;;;;;;4.40;0.98;;;;;;;21.72;41.13;101233.28;4976293;28;20511;-64
2022/11/01 07:40:29;;;;;;;5.72;0.75;;;;;;;21.77;40.40;101242.59;4975934;28;20489;-64
2022/11/01 07:42:59;;;;;;;0.98;0.50;;;;;;;21.83;40.72;101238.25;4976094;28;20037;-65
2022/11/01 07:45:26;;;;;;;8.50;0.93;;;;;;;21.84;39.84;101240.78;4975859;28;20041;-65
2022/11/01 07:47:51;;;;;;;7.38;0.70;;;;;;;21.90;40.70;101236.47;4959741;28;20117;-64
2022/11/01 07:50:17;;;;;;;15.75;1.98;;;;;;;21.94;40.27;101243.22;4976069;28;20078;-64
2022/11/01 07:52:43;;;;;;;11.85;1.88;;;;;;;21.95;40.01;101244.91;4992391;28;20037;-64
2022/11/01 07:55:09;;;;;;;3.85;0.55;;;;;;;21.96;39.45;101238.41;4991972;28;20031;-64
2022/11/01 07:57:38;;;;;;;6.13;0.77;;;;;;;22.00;39.62;101247.88;4975668;28;20118;-65
2022/11/01 08:00:05;;;;;;;4.85;1.17;;;;;;;22.02;39.48;101256.75;4975698;28;20397;-65
2022/11/01 08:02:30;;;;;;;8.35;1.60;;;;;;;22.03;39.68;101258.41;4991740;28;20100;-65
2022/11/01 08:04:55;;;;;;;3.40;0.75;;;;;;;22.04;39.19;101260.13;4992145;28;20117;-65
2022/11/01 08:07:21;;;;;;;3.85;0.52;;;;;;;22.10;39.80;101266.69;4991766;28;20408;-65
2022/11/01 08:09:46;;;;;;;5.63;0.95;;;;;;;22.16;39.99;101263.19;4976713;28;20101;-65
2022/11/01 08:12:11;;;;;;;3.05;0.65;;;;;;;22.25;39.26;101264.78;4975236;28;20110;-65
2022/11/01 08:14:37;;;;;;;1.38;1.13;;;;;;;22.35;39.54;101255.22;4976174;28;20035;-65
2022/11/01 08:17:02;;;;;;;0.57;0.30;;;;;;;22.44;39.21;101264.09;4976968;28;20023;-65
2022/11/01 08:19:27;;;;;;;5.15;0.70;;;;;;;22.58;39.16;101264.00;4991397;28;20045;-65
2022/11/01 08:21:56;;;;;;;4.43;0.47;;;;;;;22.76;39.25;101268.19;4975372;28;20109;-65
2022/11/01 08:24:21;;;;;;;2.08;0.73;;;;;;;22.89;38.57;101277.34;4991468;28;20031;-66
2022/11/01 08:26:47;;;;;;;4.53;0.90;;;;;;;23.02;38.02;101279.34;4975083;28;20039;-65
2022/11/01 08:29:12;;;;;;;5.35;0.50;;;;;;;23.17;38.98;101275.44;4991349;28;20054;-66
2022/11/01 08:31:40;;;;;;;9.40;0.80;;;;;;;23.32;38.44;101272.59;4959307;28;20090;-66
2022/11/01 08:34:05;;;;;;;5.60;0.70;;;;;;;23.47;37.66;101281.56;4958983;28;20122;-65
2022/11/01 08:36:31;;;;;;;2.83;0.70;;;;;;;23.60;38.00;101287.09;4976243;28;20113;-65
2022/11/01 08:38:57;;;;;;;4.78;1.00;;;;;;;23.72;38.15;101281.88;4990878;28;20037;-66
2022/11/01 08:41:22;;;;;;;3.55;0.93;;;;;;;23.93;37.76;101286.38;4975150;28;20476;-65
2022/11/01 08:43:48;;;;;;;9.80;0.63;;;;;;;24.10;37.88;101304.16;4976455;28;20441;-65
2022/11/01 08:46:13;;;;;;;3.45;0.50;;;;;;;24.28;37.74;101302.53;4976072;28;20041;-65
2022/11/01 08:48:38;;;;;;;4.45;0.45;;;;;;;24.39;37.23;101292.00;4974826;28;20055;-65
2022/11/01 08:51:04;;;;;;;1.15;0.70;;;;;;;24.55;37.27;101295.19;4976017;28;20555;-66
2022/11/01 08:53:29;;;;;;;3.63;0.60;;;;;;;24.71;37.10;101308.50;4990994;28;20030;-66
2022/11/01 08:55:55;;;;;;;3.60;1.40;;;;;;;24.85;37.13;101304.72;4976281;28;20023;-66
2022/11/01 08:58:20;;;;;;;5.68;0.70;;;;;;;24.99;37.28;101305.56;4975804;28;20030;-65
2022/11/01 09:00:46;;;;;;;11.35;1.08;;;;;;;25.16;36.70;101316.94;4990951;28;20034;-66
2022/11/01 09:03:11;;;;;;;5.18;0.43;;;;;;;25.36;36.51;101317.75;4975731;28;20118;-66
2022/11/01 09:05:36;;;;;;;4.55;1.05;;;;;;;25.56;36.15;101332.31;4990490;28;20039;-66
2022/11/01 09:08:02;;;;;;;1.92;0.77;;;;;;;26.20;35.18;101313.09;4976690;28;20534;-67
2022/11/01 09:10:29;;;;;;;6.45;0.82;;;;;;;26.42;35.06;101313.59;4975565;28;20027;-65
2022/11/01 09:12:55;;;;;;;6.50;0.43;;;;;;;26.37;34.88;101314.25;4990353;28;20158;-67
2022/11/01 09:15:21;;;;;;;5.05;1.08;;;;;;;26.63;35.42;101330.56;4974196;28;20027;-65
2022/11/01 09:17:46;;;;;;;0.52;0.30;;;;;;;26.94;35.01;101326.16;4974220;28;20106;-66
2022/11/01 09:20:13;;;;;;;6.45;0.88;;;;;;;27.18;33.83;101334.41;4990437;28;20023;-66
2022/11/01 09:22:38;;;;;;;4.72;0.70;;;;;;;27.46;33.74;101339.44;4975841;28;20122;-66
2022/11/01 09:25:04;;;;;;;4.38;0.93;;;;;;;27.78;34.29;101353.91;4976083;28;20122;-65
2022/11/01 09:27:30;;;;;;;1.77;0.57;;;;;;;27.96;34.15;101334.63;4974040;28;20047;-66
2022/11/01 09:29:55;;;;;;;12.32;2.15;;;;;;;28.19;33.39;101359.59;4941816;28;20070;-67
2022/11/01 09:32:20;;;;;;;4.95;0.68;;;;;;;28.46;33.64;101340.78;4973846;28;20381;-67
2022/11/01 09:34:47;;;;;;;11.07;1.40;;;;;;;28.72;32.50;101345.09;4974270;28;20110;-68
2022/11/01 09:37:13;;;;;;;9.77;1.40;;;;;;;28.95;32.67;101344.31;4973865;28;20038;-67
2022/11/01 09:39:39;;;;;;;7.93;1.02;;;;;;;29.16;31.89;101352.84;4941806;28;20069;-67
2022/11/01 09:42:10;;;;;;;2.83;0.60;;;;;;;29.38;31.63;101362.25;4973814;28;20038;-67
2022/11/01 09:44:39;;;;;;;4.10;1.40;;;;;;;29.47;32.30;101348.91;4973639;28;20031;-67
2022/11/01 09:47:17;;;;;;;8.57;1.42;;;;;;;29.59;31.66;101363.56;4973475;28;20054;-68
2022/11/01 09:49:46;;;;;;;6.43;0.98;;;;;;;29.74;31.36;101363.91;4957521;28;20043;-68
2022/11/01 09:52:19;;;;;;;1.77;0.60;;;;;;;29.90;31.30;101359.59;4974837;28;20035;-68
2022/11/01 09:54:46;;;;;;;4.60;0.93;;;;;;;30.06;31.70;101358.84;4989713;28;20042;-68
2022/11/01 09:57:23;;;;;;;4.75;1.30;;;;;;;30.10;31.70;101373.81;4957387;28;20421;-68
2022/11/01 10:00:06;;;;;;;6.57;0.70;;;;;;;30.38;31.00;101365.59;4989621;28;20045;-68
2022/11/01 10:02:44;;;;;;;3.63;0.80;;;;;;;30.61;30.81;101361.03;4973384;28;20047;-67
2022/11/01 10:05:20;;;;;;;9.23;1.10;;;;;;;30.75;30.63;101359.66;4975030;28;20046;-67
2022/11/01 10:07:49;;;;;;;5.07;0.93;;;;;;;30.90;30.44;101362.69;4989588;28;20051;-68
2022/11/01 10:10:26;;;;;;;5.35;1.20;;;;;;;31.05;30.30;101363.81;4974537;28;20121;-69
2022/11/01 10:13:16;;;;;;;2.33;0.70;;;;;;;31.23;29.97;101371.03;4974050;28;20034;-69
2022/11/01 10:16:01;;;;;;;9.18;1.30;;;;;;;31.45;29.85;101365.56;4974320;28;20031;-68
2022/11/01 10:18:32;;;;;;;7.57;0.88;;;;;;;31.51;30.11;101362.66;4973061;28;20126;-68
2022/11/01 10:21:07;;;;;;;3.53;0.80;;;;;;;31.56;29.27;101362.72;4989239;28;20089;-69
2022/11/01 10:23:42;;;;;;;7.38;0.82;;;;;;;31.60;29.90;101361.09;4972862;28;20035;-69
2022/11/01 10:26:12;;;;;;;8.48;1.23;;;;;;;31.64;29.59;101375.28;4988985;28;20033;-69
2022/11/01 10:28:50;;;;;;;5.43;0.80;;;;;;;31.69;29.77;101370.66;4972478;28;20095;-69
2022/11/01 10:31:19;;;;;;;7.55;1.02;;;;;;;31.75;29.81;101363.25;4973884;28;20074;-69
2022/11/01 10:34:04;;;;;;;6.88;1.25;;;;;;;31.77;29.00;101382.41;4989120;28;20034;-68
2022/11/01 10:36:33;;;;;;;4.20;0.93;;;;;;;31.67;28.81;101378.41;4987956;28;20102;-67
2022/11/01 10:39:13;;;;;;;3.22;0.63;;;;;;;31.63;28.96;101391.06;4972867;28;20117;-68
2022/11/01 10:41:44;;;;;;;5.05;0.90;;;;;;;31.44;29.14;101388.81;4973934;28;20399;-69
2022/11/01 10:44:16;;;;;;;5.93;1.40;;;;;;;31.54;28.92;101386.25;4991955;28;20019;-67
2022/11/01 10:46:44;;;;;;;6.22;0.95;;;;;;;31.60;29.31;101391.59;4957908;28;20074;-67
2022/11/01 10:49:27;;;;;;;3.83;0.65;;;;;;;31.68;28.88;101385.63;4957017;28;20558;-68
2022/11/01 10:51:58;;;;;;;7.32;1.20;;;;;;;31.70;28.64;101386.22;4973103;28;20122;-67
2022/11/01 10:54:27;;;;;;;4.22;0.85;;;;;;;31.80;29.09;101399.34;4989622;28;20030;-67
2022/11/01 10:56:54;;;;;;;7.65;1.23;;;;;;;31.90;28.95;101398.69;4972855;28;20078;-66
2022/11/01 10:59:28;;;;;;;6.38;1.27;;;;;;;31.41;28.77;101392.09;4972688;28;20025;-67
2022/11/01 11:01:54;;;;;;;10.07;1.02;;;;;;;31.39;28.48;101392.34;4989235;28;20050;-67
2022/11/01 11:04:21;;;;;;;7.43;1.10;;;;;;;31.22;29.00;101397.03;4956574;28;20063;-67
2022/11/01 11:06:47;;;;;;;4.78;1.55;;;;;;;31.34;29.09;101397.81;4956402;28;20509;-66
2022/11/01 11:09:33;;;;;;;7.18;0.80;;;;;;;31.21;29.13;101406.47;4972504;28;20074;-66
2022/11/01 11:12:02;;;;;;;7.13;1.23;;;;;;;31.31;28.83;101398.31;4973817;28;20054;-66
2022/11/01 11:14:30;;;;;;;6.85;0.95;;;;;;;31.45;28.53;101390.50;4972265;28;20037;-66
2022/11/01 11:16:56;;;;;;;3.47;0.80;;;;;;;31.54;28.50;101395.41;4956942;28;20033;-67
2022/11/01 11:19:28;;;;;;;3.58;1.15;;;;;;;31.60;28.78;101388.00;4972413;28;20038;-65
2022/11/01 11:21:54;;;;;;;4.20;0.80;;;;;;;31.64;28.83;101384.47;4973776;28;20123;-65
2022/11/01 11:24:22;;;;;;;6.65;1.20;;;;;;;31.68;28.94;101379.25;4972602;28;20105;-67
2022/11/01 11:26:50;;;;;;;5.90;1.38;;;;;;;31.77;28.15;101383.22;4972515;28;20394;-67
2022/11/01 11:29:27;;;;;;;4.60;1.48;;;;;;;31.64;28.83;101392.75;4972483;28;20484;-67
2022/11/01 11:31:58;;;;;;;6.30;1.20;;;;;;;31.68;28.60;101391.19;4974109;28;20049;-67
2022/11/01 11:34:31;;;;;;;5.82;0.80;;;;;;;31.66;28.45;101390.56;4972428;28;20034;-65
2022/11/01 11:36:57;;;;;;;3.92;0.57;;;;;;;31.46;28.84;101390.25;4973503;28;20141;-68